createdAt,value
2018-07-31T00:00:02.223Z,931.18
2018-07-31T00:01:02.243Z,931.18
2018-07-31T00:02:02.282Z,931.22
2018-07-31T00:03:02.290Z,931.18
2018-07-31T00:04:02.273Z,931.18
2018-07-31T00:05:02.362Z,931.14
2018-07-31T00:06:02.288Z,931.12
2018-07-31T00:07:02.310Z,931.08
2018-07-31T00:08:02.346Z,931.17
2018-07-31T00:09:02.312Z,931.24
2018-07-31T00:10:02.425Z,931.34
2018-07-31T00:11:02.363Z,931.37
2018-07-31T00:12:02.350Z,931.47
2018-07-31T00:13:02.411Z,931.55
2018-07-31T00:14:02.392Z,931.63
2018-07-31T00:15:02.520Z,931.65
2018-07-31T00:16:02.565Z,931.73
2018-07-31T00:17:02.446Z,931.85
2018-07-31T00:18:02.557Z,931.99
2018-07-31T00:19:02.493Z,932.14
2018-07-31T00:20:02.465Z,932.33
2018-07-31T00:21:02.711Z,932.48
2018-07-31T00:22:02.498Z,932.62
2018-07-31T00:23:02.538Z,932.71
2018-07-31T00:24:02.516Z,932.75
2018-07-31T00:25:02.546Z,932.70
2018-07-31T00:26:02.678Z,932.57
2018-07-31T00:27:02.546Z,932.44
2018-07-31T00:28:02.558Z,932.30
2018-07-31T00:29:02.563Z,932.26
2018-07-31T00:30:02.591Z,932.27
2018-07-31T00:31:02.744Z,932.38
2018-07-31T00:32:02.655Z,932.43
2018-07-31T00:33:02.608Z,932.40
2018-07-31T00:34:02.656Z,932.30
2018-07-31T00:35:02.660Z,932.20
2018-07-31T00:36:02.786Z,932.14
2018-07-31T00:37:02.673Z,932.14
2018-07-31T00:38:02.741Z,932.13
2018-07-31T00:39:02.717Z,932.14
2018-07-31T00:40:02.718Z,932.12
2018-07-31T00:41:02.829Z,932.03
2018-07-31T00:42:02.737Z,931.89
2018-07-31T00:43:02.753Z,931.77
2018-07-31T00:44:02.785Z,931.60
2018-07-31T00:45:02.804Z,931.57
2018-07-31T00:46:02.913Z,931.48
2018-07-31T00:47:02.793Z,931.48
2018-07-31T00:48:02.888Z,931.41
2018-07-31T00:49:02.859Z,931.34
2018-07-31T00:50:02.868Z,931.32
2018-07-31T00:51:02.865Z,931.38
2018-07-31T00:52:02.844Z,931.42
2018-07-31T00:53:02.982Z,931.51
2018-07-31T00:54:02.870Z,931.61
2018-07-31T00:55:02.888Z,931.66
2018-07-31T00:56:02.900Z,931.72
2018-07-31T00:57:02.916Z,931.79
2018-07-31T00:58:03.042Z,931.77
2018-07-31T00:59:02.975Z,931.79
2018-07-31T01:00:02.964Z,931.81
2018-07-31T01:01:02.979Z,931.81
2018-07-31T01:02:03.021Z,931.77
2018-07-31T01:03:03.020Z,931.79
2018-07-31T01:04:03.112Z,931.84
2018-07-31T01:05:03.013Z,931.91
2018-07-31T01:06:03.158Z,931.97
2018-07-31T01:07:03.047Z,932.00
2018-07-31T01:08:03.034Z,932.01
2018-07-31T01:09:03.039Z,932.03
2018-07-31T01:10:03.104Z,932.03
2018-07-31T01:11:03.212Z,932.05
2018-07-31T01:12:03.309Z,932.02
2018-07-31T01:13:03.109Z,932.03
2018-07-31T01:14:03.126Z,932.08
2018-07-31T01:15:03.127Z,932.11
2018-07-31T01:16:03.261Z,932.19
2018-07-31T01:17:03.305Z,932.27
2018-07-31T01:18:03.182Z,932.38
2018-07-31T01:19:03.181Z,932.48
2018-07-31T01:20:03.242Z,932.56
2018-07-31T01:22:03.342Z,932.79
2018-07-31T01:23:03.250Z,932.84
2018-07-31T01:24:03.244Z,932.84
2018-07-31T01:25:03.240Z,932.87
2018-07-31T01:26:03.294Z,932.84
2018-07-31T01:27:03.487Z,932.79
2018-07-31T01:28:03.280Z,932.73
2018-07-31T01:29:03.326Z,932.67
2018-07-31T01:30:03.306Z,932.53
2018-07-31T01:31:03.353Z,932.44
2018-07-31T01:32:03.450Z,932.34
2018-07-31T01:33:03.328Z,932.30
2018-07-31T01:34:03.383Z,932.21
2018-07-31T01:35:03.482Z,932.09
2018-07-31T01:36:03.416Z,931.92
2018-07-31T01:37:03.491Z,931.80
2018-07-31T01:38:03.407Z,931.69
2018-07-31T01:39:03.438Z,931.72
2018-07-31T01:40:03.545Z,931.72
2018-07-31T01:41:03.444Z,931.47
2018-07-31T01:42:03.645Z,931.41
2018-07-31T01:43:03.577Z,931.34
2018-07-31T01:44:03.473Z,931.41
2018-07-31T01:45:03.518Z,931.36
2018-07-31T01:46:03.577Z,931.30
2018-07-31T01:47:03.599Z,931.19
2018-07-31T01:48:03.536Z,931.08
2018-07-31T01:49:03.535Z,931.01
2018-07-31T01:50:03.566Z,930.83
2018-07-31T01:51:03.557Z,930.88
2018-07-31T01:52:03.701Z,930.81
2018-07-31T01:53:03.607Z,930.81
2018-07-31T01:54:03.589Z,930.75
2018-07-31T01:55:03.596Z,930.69
2018-07-31T01:56:03.736Z,930.66
2018-07-31T01:57:03.723Z,930.53
2018-07-31T01:58:03.635Z,930.56
2018-07-31T01:59:03.688Z,930.50
2018-07-31T02:00:03.642Z,930.45
2018-07-31T02:01:03.718Z,930.40
2018-07-31T02:02:03.778Z,930.36
2018-07-31T02:03:03.712Z,930.42
2018-07-31T02:04:03.702Z,930.49
2018-07-31T02:05:03.834Z,930.62
2018-07-31T02:06:03.734Z,930.76
2018-07-31T02:07:03.959Z,930.97
2018-07-31T02:08:03.764Z,931.17
2018-07-31T02:09:03.772Z,931.33
2018-07-31T02:10:03.772Z,931.47
2018-07-31T02:11:03.774Z,931.63
2018-07-31T02:12:03.895Z,931.74
2018-07-31T02:13:03.810Z,931.80
2018-07-31T02:14:03.830Z,931.87
2018-07-31T02:15:03.833Z,931.89
2018-07-31T02:16:03.871Z,931.79
2018-07-31T02:17:07.386Z,931.76
2018-07-31T02:18:03.857Z,931.70
2018-07-31T02:19:03.892Z,931.59
2018-07-31T02:20:03.890Z,931.45
2018-07-31T02:21:03.903Z,931.40
2018-07-31T02:22:04.020Z,931.28
2018-07-31T02:23:03.955Z,931.04
2018-07-31T02:24:03.939Z,930.82
2018-07-31T02:25:03.964Z,930.56
2018-07-31T02:26:03.968Z,930.33
2018-07-31T02:27:04.080Z,930.19
2018-07-31T02:28:04.086Z,930.12
2018-07-31T02:29:04.021Z,930.13
2018-07-31T02:30:04.006Z,930.11
2018-07-31T02:31:04.026Z,930.09
2018-07-31T02:32:04.057Z,930.08
2018-07-31T02:33:04.139Z,930.03
2018-07-31T02:34:04.069Z,929.96
2018-07-31T02:35:04.065Z,929.94
2018-07-31T02:36:04.083Z,929.92
2018-07-31T02:37:04.088Z,929.85
2018-07-31T02:38:04.102Z,929.82
2018-07-31T02:39:04.208Z,929.79
2018-07-31T02:40:04.120Z,929.79
2018-07-31T02:41:04.153Z,929.81
2018-07-31T02:42:04.164Z,929.74
2018-07-31T02:43:04.284Z,929.69
2018-07-31T02:44:04.296Z,929.62
2018-07-31T02:45:04.295Z,929.63
2018-07-31T02:46:04.210Z,929.70
2018-07-31T02:47:04.216Z,929.73
2018-07-31T02:48:04.217Z,929.74
2018-07-31T02:49:04.245Z,929.73
2018-07-31T02:50:04.342Z,929.74
2018-07-31T02:51:04.257Z,929.74
2018-07-31T02:52:04.279Z,929.76
2018-07-31T02:53:04.409Z,929.78
2018-07-31T02:54:04.418Z,929.84
2018-07-31T02:55:04.296Z,929.86
2018-07-31T02:56:04.458Z,929.92
2018-07-31T02:57:04.333Z,929.98
2018-07-31T02:58:04.413Z,930.04
2018-07-31T02:59:04.356Z,930.12
2018-07-31T03:00:04.367Z,930.19
2018-07-31T03:01:04.572Z,930.26
2018-07-31T03:02:04.511Z,930.31
2018-07-31T03:03:04.527Z,930.32
2018-07-31T03:04:04.426Z,930.34
2018-07-31T03:05:04.485Z,930.31
2018-07-31T03:06:04.537Z,930.25
2018-07-31T03:07:04.446Z,930.25
2018-07-31T03:08:04.612Z,930.25
2018-07-31T03:09:04.465Z,930.28
2018-07-31T03:10:04.502Z,930.27
2018-07-31T03:11:04.541Z,930.29
2018-07-31T03:12:04.634Z,930.26
2018-07-31T03:13:04.514Z,930.29
2018-07-31T03:14:04.520Z,930.35
2018-07-31T03:15:04.667Z,930.43
2018-07-31T03:16:04.815Z,930.47
2018-07-31T03:17:04.584Z,930.51
2018-07-31T03:18:04.588Z,930.55
2018-07-31T03:19:04.605Z,930.50
2018-07-31T03:20:04.608Z,930.44
2018-07-31T03:21:04.844Z,930.31
2018-07-31T03:22:04.751Z,930.24
2018-07-31T03:23:04.635Z,930.23
2018-07-31T03:24:04.695Z,930.20
2018-07-31T03:25:04.666Z,930.21
2018-07-31T03:26:04.807Z,930.22
2018-07-31T03:27:04.685Z,930.22
2018-07-31T03:28:04.765Z,930.18
2018-07-31T03:29:04.750Z,930.18
2018-07-31T03:30:04.733Z,930.16
2018-07-31T03:31:04.959Z,930.15
2018-07-31T03:32:04.788Z,930.13
2018-07-31T03:33:04.761Z,930.12
2018-07-31T03:34:04.820Z,930.19
2018-07-31T03:35:04.831Z,930.15
2018-07-31T03:36:04.797Z,930.15
2018-07-31T03:37:05.070Z,930.18
2018-07-31T03:38:04.806Z,930.15
2018-07-31T03:39:04.834Z,930.14
2018-07-31T03:40:04.848Z,930.05
2018-07-31T03:41:04.843Z,930.04
2018-07-31T03:42:04.868Z,930.02
2018-07-31T03:43:05.102Z,930.00
2018-07-31T03:44:04.895Z,930.04
2018-07-31T03:45:04.949Z,930.10
2018-07-31T03:46:05.081Z,930.13
2018-07-31T03:47:04.920Z,930.17
2018-07-31T03:48:04.960Z,930.13
2018-07-31T03:49:05.281Z,930.13
2018-07-31T03:50:05.057Z,930.13
2018-07-31T03:51:04.972Z,930.12
2018-07-31T03:52:05.112Z,930.13
2018-07-31T03:53:05.005Z,930.09
2018-07-31T03:54:05.117Z,930.03
2018-07-31T03:55:05.028Z,930.04
2018-07-31T03:56:05.038Z,930.05
2018-07-31T03:57:05.088Z,930.05
2018-07-31T03:58:05.181Z,930.02
2018-07-31T03:59:05.082Z,930.01
2018-07-31T04:00:05.495Z,929.99
2018-07-31T04:01:05.097Z,929.95
2018-07-31T04:02:05.109Z,929.94
2018-07-31T04:03:05.244Z,929.89
2018-07-31T04:04:05.257Z,929.88
2018-07-31T04:05:05.261Z,929.88
2018-07-31T04:06:05.367Z,929.87
2018-07-31T04:07:05.168Z,929.88
2018-07-31T04:08:05.173Z,929.86
2018-07-31T04:09:05.195Z,929.87
2018-07-31T04:10:05.189Z,929.85
2018-07-31T04:11:05.335Z,929.79
2018-07-31T04:12:05.552Z,929.85
2018-07-31T04:13:05.364Z,929.90
2018-07-31T04:14:05.251Z,929.89
2018-07-31T04:15:05.257Z,929.88
2018-07-31T04:16:05.271Z,929.87
2018-07-31T04:17:05.452Z,929.80
2018-07-31T04:18:05.490Z,929.73
2018-07-31T04:19:05.310Z,929.69
2018-07-31T04:20:05.325Z,929.61
2018-07-31T04:21:05.335Z,929.63
2018-07-31T04:22:05.353Z,929.62
2018-07-31T04:23:05.451Z,929.61
2018-07-31T04:24:05.573Z,929.66
2018-07-31T04:25:05.375Z,929.67
2018-07-31T04:26:05.516Z,929.66
2018-07-31T04:27:05.530Z,929.67
2018-07-31T04:28:05.415Z,929.62
2018-07-31T04:29:05.873Z,929.60
2018-07-31T04:30:05.571Z,929.60
2018-07-31T04:31:05.462Z,929.58
2018-07-31T04:32:05.592Z,929.61
2018-07-31T04:33:05.493Z,929.60
2018-07-31T04:34:05.693Z,929.62
2018-07-31T04:35:05.524Z,929.60
2018-07-31T04:36:05.557Z,929.55
2018-07-31T04:37:05.536Z,929.57
2018-07-31T04:38:05.541Z,929.58
2018-07-31T04:39:05.763Z,929.53
2018-07-31T04:40:05.569Z,929.48
2018-07-31T04:41:05.631Z,929.46
2018-07-31T04:42:05.597Z,929.52
2018-07-31T04:43:05.604Z,929.54
2018-07-31T04:44:05.855Z,929.53
2018-07-31T04:45:05.628Z,929.50
2018-07-31T04:46:05.640Z,929.48
2018-07-31T04:47:05.651Z,929.49
2018-07-31T04:48:05.658Z,929.50
2018-07-31T04:49:05.778Z,929.51
2018-07-31T04:50:05.693Z,929.43
2018-07-31T04:51:05.708Z,929.37
2018-07-31T04:52:05.703Z,929.36
2018-07-31T04:53:05.726Z,929.31
2018-07-31T04:54:05.845Z,929.27
2018-07-31T04:55:05.747Z,929.24
2018-07-31T04:56:05.880Z,929.25
2018-07-31T04:57:05.816Z,929.25
2018-07-31T04:58:05.789Z,929.25
2018-07-31T04:59:05.929Z,929.25
2018-07-31T05:00:05.936Z,929.25
2018-07-31T05:01:05.834Z,929.19
2018-07-31T05:02:05.824Z,929.18
2018-07-31T05:03:05.852Z,929.12
2018-07-31T05:04:05.953Z,929.14
2018-07-31T05:05:05.993Z,929.13
2018-07-31T05:06:05.889Z,929.10
2018-07-31T05:07:06.017Z,929.09
2018-07-31T05:08:05.916Z,929.04
2018-07-31T05:09:05.926Z,929.02
2018-07-31T05:10:06.153Z,928.94
2018-07-31T05:11:06.017Z,928.93
2018-07-31T05:12:05.952Z,928.91
2018-07-31T05:13:05.957Z,928.99
2018-07-31T05:14:05.982Z,928.94
2018-07-31T05:15:05.984Z,928.93
2018-07-31T05:16:06.114Z,928.90
2018-07-31T05:17:06.136Z,928.86
2018-07-31T05:18:06.034Z,928.87
2018-07-31T05:19:06.032Z,928.87
2018-07-31T05:20:06.049Z,928.85
2018-07-31T05:21:06.183Z,928.90
2018-07-31T05:22:06.177Z,928.80
2018-07-31T05:23:06.082Z,928.74
2018-07-31T05:24:06.094Z,928.62
2018-07-31T05:25:06.143Z,928.63
2018-07-31T05:26:06.128Z,928.57
2018-07-31T05:27:06.173Z,928.54
2018-07-31T05:28:06.249Z,928.55
2018-07-31T05:29:06.169Z,928.48
2018-07-31T05:30:06.172Z,928.45
2018-07-31T05:31:06.182Z,928.41
2018-07-31T05:32:06.232Z,928.40
2018-07-31T05:33:06.305Z,928.32
2018-07-31T05:34:06.205Z,928.31
2018-07-31T05:35:06.352Z,928.31
2018-07-31T05:36:06.285Z,928.31
2018-07-31T05:37:06.255Z,928.32
2018-07-31T05:38:06.280Z,928.32
2018-07-31T05:39:06.395Z,928.29
2018-07-31T05:40:06.301Z,928.27
2018-07-31T05:41:06.301Z,928.24
2018-07-31T05:42:06.318Z,928.25
2018-07-31T05:43:06.445Z,928.30
2018-07-31T05:44:06.327Z,928.32
2018-07-31T05:45:06.480Z,928.37
2018-07-31T05:46:06.484Z,928.40
2018-07-31T05:47:06.405Z,928.45
2018-07-31T05:48:06.383Z,928.51
2018-07-31T05:49:06.442Z,928.51
2018-07-31T05:50:06.501Z,928.52
2018-07-31T05:51:06.536Z,928.51
2018-07-31T05:52:06.421Z,928.50
2018-07-31T05:53:06.429Z,928.52
2018-07-31T05:54:06.576Z,928.45
2018-07-31T05:55:06.685Z,928.46
2018-07-31T05:56:06.486Z,928.44
2018-07-31T05:57:06.492Z,928.44
2018-07-31T05:58:06.510Z,928.44
2018-07-31T05:59:06.505Z,928.36
2018-07-31T06:00:06.614Z,928.28
2018-07-31T06:01:06.526Z,928.23
2018-07-31T06:02:06.587Z,928.15
2018-07-31T06:03:06.553Z,928.15
2018-07-31T06:04:06.572Z,928.12
2018-07-31T06:05:06.632Z,928.13
2018-07-31T06:06:06.611Z,928.14
2018-07-31T06:07:06.617Z,928.18
2018-07-31T06:08:06.623Z,928.10
2018-07-31T06:09:06.747Z,928.01
2018-07-31T06:10:06.743Z,927.95
2018-07-31T06:11:06.692Z,927.83
2018-07-31T06:12:06.789Z,927.79
2018-07-31T06:13:06.669Z,927.74
2018-07-31T06:14:06.698Z,927.79
2018-07-31T06:15:06.839Z,927.82
2018-07-31T06:16:06.760Z,927.87
2018-07-31T06:17:06.721Z,927.92
2018-07-31T06:18:06.744Z,927.90
2018-07-31T06:19:06.741Z,927.85
2018-07-31T06:20:06.804Z,927.89
2018-07-31T06:21:06.778Z,927.92
2018-07-31T06:22:06.782Z,927.94
2018-07-31T06:23:06.797Z,927.99
2018-07-31T06:24:06.817Z,928.08
2018-07-31T06:25:06.943Z,928.16
2018-07-31T06:26:06.948Z,928.20
2018-07-31T06:27:06.909Z,928.14
2018-07-31T06:28:06.858Z,928.10
2018-07-31T06:29:06.902Z,928.09
2018-07-31T06:30:06.891Z,928.05
2018-07-31T06:31:06.881Z,928.06
2018-07-31T06:32:07.042Z,928.11
2018-07-31T06:33:06.906Z,928.16
2018-07-31T06:34:07.047Z,928.20
2018-07-31T06:35:07.056Z,928.24
2018-07-31T06:36:06.951Z,928.25
2018-07-31T06:37:06.954Z,928.18
2018-07-31T06:38:07.076Z,928.19
2018-07-31T06:39:07.025Z,928.09
2018-07-31T06:40:07.006Z,928.04
2018-07-31T06:41:07.131Z,928.02
2018-07-31T06:42:07.022Z,928.00
2018-07-31T06:43:07.256Z,928.05
2018-07-31T06:44:07.043Z,928.12
2018-07-31T06:45:07.049Z,928.12
2018-07-31T06:46:07.079Z,928.15
2018-07-31T06:47:07.082Z,928.18
2018-07-31T06:48:07.077Z,928.22
2018-07-31T06:49:07.326Z,928.33
2018-07-31T06:50:07.242Z,928.45
2018-07-31T06:51:07.130Z,928.48
2018-07-31T06:52:07.261Z,928.54
2018-07-31T06:53:07.150Z,928.59
2018-07-31T06:54:07.266Z,928.62
2018-07-31T06:55:07.177Z,928.65
2018-07-31T06:56:07.226Z,928.62
2018-07-31T06:57:07.318Z,928.61
2018-07-31T06:58:07.222Z,928.63
2018-07-31T06:59:07.229Z,928.57
2018-07-31T07:00:07.334Z,928.59
2018-07-31T07:01:07.242Z,928.62
2018-07-31T07:02:07.329Z,928.64
2018-07-31T07:03:07.261Z,928.65
2018-07-31T07:04:07.407Z,928.74
2018-07-31T07:05:07.519Z,928.76
2018-07-31T07:06:07.337Z,928.70
2018-07-31T07:07:07.330Z,928.60
2018-07-31T07:08:07.372Z,928.54
2018-07-31T07:09:07.512Z,928.56
2018-07-31T07:10:07.579Z,928.62
2018-07-31T07:11:07.373Z,928.69
2018-07-31T07:12:07.368Z,928.75
2018-07-31T07:13:07.379Z,928.80
2018-07-31T07:14:07.392Z,928.74
2018-07-31T07:15:07.548Z,928.74
2018-07-31T07:16:07.428Z,928.71
2018-07-31T07:17:07.562Z,928.72
2018-07-31T07:18:07.570Z,928.71
2018-07-31T07:19:07.458Z,928.66
2018-07-31T07:20:07.694Z,928.63
2018-07-31T07:21:07.485Z,928.68
2018-07-31T07:22:07.493Z,928.76
2018-07-31T07:23:07.504Z,928.81
2018-07-31T07:24:07.568Z,928.80
2018-07-31T07:25:07.580Z,928.90
2018-07-31T07:26:07.666Z,928.96
2018-07-31T07:27:07.550Z,929.02
2018-07-31T07:28:07.562Z,929.07
2018-07-31T07:29:07.579Z,929.16
2018-07-31T07:30:07.688Z,929.23
2018-07-31T07:31:07.593Z,929.40
2018-07-31T07:32:07.650Z,929.48
2018-07-31T07:33:07.668Z,929.53
2018-07-31T07:34:07.648Z,929.57
2018-07-31T07:35:07.878Z,929.44
2018-07-31T07:36:07.700Z,929.59
2018-07-31T07:37:07.685Z,929.61
2018-07-31T07:38:07.718Z,929.70
2018-07-31T07:39:07.816Z,929.61
2018-07-31T07:40:07.816Z,929.48
2018-07-31T07:41:07.842Z,929.44
2018-07-31T07:42:07.747Z,929.48
2018-07-31T07:43:07.864Z,929.46
2018-07-31T07:44:07.751Z,929.46
2018-07-31T07:45:07.889Z,929.50
2018-07-31T07:46:08.000Z,929.59
2018-07-31T07:47:07.797Z,929.65
2018-07-31T07:48:07.805Z,929.60
2018-07-31T07:49:07.816Z,929.52
2018-07-31T07:50:07.834Z,929.51
2018-07-31T07:51:07.885Z,929.58
2018-07-31T07:52:07.871Z,929.67
2018-07-31T07:53:07.897Z,929.71
2018-07-31T07:54:07.985Z,929.72
2018-07-31T07:55:07.930Z,929.83
2018-07-31T07:56:08.165Z,929.84
2018-07-31T07:57:07.914Z,929.98
2018-07-31T07:58:08.042Z,930.06
2018-07-31T07:59:07.924Z,930.07
2018-07-31T08:00:08.069Z,930.12
2018-07-31T08:01:08.052Z,930.05
2018-07-31T08:02:07.963Z,929.98
2018-07-31T08:03:08.014Z,929.94
2018-07-31T08:04:08.082Z,929.95
2018-07-31T08:05:08.003Z,929.89
2018-07-31T08:06:08.127Z,929.83
2018-07-31T08:07:08.045Z,929.87
2018-07-31T08:08:08.037Z,929.96
2018-07-31T08:09:08.045Z,929.96
2018-07-31T08:10:08.183Z,930.09
2018-07-31T08:11:08.175Z,930.14
2018-07-31T08:12:08.136Z,930.16
2018-07-31T08:13:08.098Z,930.16
2018-07-31T08:14:08.114Z,930.15
2018-07-31T08:15:08.166Z,930.10
2018-07-31T08:16:08.176Z,930.07
2018-07-31T08:17:08.261Z,930.06
2018-07-31T08:18:08.279Z,930.02
2018-07-31T08:19:08.163Z,929.98
2018-07-31T08:20:08.180Z,930.00
2018-07-31T08:21:08.194Z,929.95
2018-07-31T08:22:08.326Z,929.96
2018-07-31T08:23:08.384Z,930.00
2018-07-31T08:24:08.220Z,930.04
2018-07-31T08:25:08.229Z,930.09
2018-07-31T08:26:08.261Z,930.19
2018-07-31T08:27:08.268Z,930.17
2018-07-31T08:28:08.418Z,930.26
2018-07-31T08:29:08.500Z,930.25
2018-07-31T08:30:08.296Z,930.16
2018-07-31T08:31:08.321Z,930.15
2018-07-31T08:32:08.314Z,930.17
2018-07-31T08:33:08.335Z,930.18
2018-07-31T08:34:08.495Z,930.22
2018-07-31T08:35:08.471Z,930.29
2018-07-31T08:36:08.372Z,930.37
2018-07-31T08:37:08.500Z,930.42
2018-07-31T08:38:08.379Z,930.46
2018-07-31T08:39:08.502Z,930.47
2018-07-31T08:40:08.451Z,930.48
2018-07-31T08:41:08.436Z,930.41
2018-07-31T08:42:08.436Z,930.34
2018-07-31T08:43:08.569Z,930.33
2018-07-31T08:44:08.560Z,930.33
2018-07-31T08:45:08.466Z,930.26
2018-07-31T08:46:08.482Z,930.07
2018-07-31T08:47:08.502Z,930.14
2018-07-31T08:48:08.513Z,930.22
2018-07-31T08:49:08.604Z,930.22
2018-07-31T08:50:08.543Z,930.19
2018-07-31T08:51:08.576Z,930.15
2018-07-31T08:52:08.553Z,930.16
2018-07-31T08:53:08.570Z,930.20
2018-07-31T08:54:08.670Z,930.26
2018-07-31T08:55:08.581Z,930.29
2018-07-31T08:56:08.713Z,930.38
2018-07-31T08:57:08.617Z,930.48
2018-07-31T08:58:08.662Z,930.52
2018-07-31T08:59:08.723Z,930.56
2018-07-31T09:00:08.763Z,930.56
2018-07-31T09:01:08.652Z,930.56
2018-07-31T09:02:08.672Z,930.59
2018-07-31T09:03:08.795Z,930.65
2018-07-31T09:04:08.688Z,930.69
2018-07-31T09:05:08.800Z,930.62
2018-07-31T09:06:08.742Z,930.58
2018-07-31T09:07:08.710Z,930.65
2018-07-31T09:08:08.842Z,930.66
2018-07-31T09:09:08.864Z,930.87
2018-07-31T09:10:08.747Z,930.95
2018-07-31T09:11:08.885Z,931.10
2018-07-31T09:12:08.896Z,931.21
2018-07-31T09:13:08.797Z,931.29
2018-07-31T09:14:08.801Z,931.20
2018-07-31T09:15:08.807Z,931.25
2018-07-31T09:16:08.966Z,931.30
2018-07-31T09:17:08.836Z,931.47
2018-07-31T09:18:08.975Z,931.69
2018-07-31T09:19:08.844Z,931.82
2018-07-31T09:20:08.993Z,932.18
2018-07-31T09:21:08.997Z,932.34
2018-07-31T09:22:09.102Z,932.39
2018-07-31T09:23:08.893Z,932.26
2018-07-31T09:24:08.913Z,932.08
2018-07-31T09:25:09.043Z,931.77
2018-07-31T09:26:08.942Z,931.59
2018-07-31T09:27:09.114Z,931.38
2018-07-31T09:28:08.961Z,931.15
2018-07-31T09:29:08.970Z,931.08
2018-07-31T09:30:08.985Z,930.95
2018-07-31T09:31:09.140Z,930.81
2018-07-31T09:32:08.989Z,930.78
2018-07-31T09:33:09.007Z,930.77
2018-07-31T09:34:09.144Z,930.61
2018-07-31T09:35:09.022Z,930.53
2018-07-31T09:36:09.130Z,930.64
2018-07-31T09:37:09.174Z,930.82
2018-07-31T09:38:09.155Z,930.84
2018-07-31T09:39:09.071Z,930.90
2018-07-31T09:40:09.091Z,930.93
2018-07-31T09:41:09.361Z,931.04
2018-07-31T09:42:09.228Z,931.08
2018-07-31T09:43:09.136Z,931.15
2018-07-31T09:44:09.132Z,931.15
2018-07-31T09:45:09.142Z,931.22
2018-07-31T09:46:09.253Z,931.29
2018-07-31T09:47:09.162Z,931.42
2018-07-31T09:48:09.156Z,931.44
2018-07-31T09:49:09.221Z,931.54
2018-07-31T09:50:09.196Z,931.62
2018-07-31T09:51:09.399Z,931.73
2018-07-31T09:52:09.232Z,931.87
2018-07-31T09:53:09.228Z,932.05
2018-07-31T09:54:09.228Z,932.16
2018-07-31T09:55:09.242Z,932.32
2018-07-31T09:56:09.501Z,932.54
2018-07-31T09:57:09.352Z,932.55
2018-07-31T09:58:09.323Z,932.68
2018-07-31T09:59:09.316Z,932.77
2018-07-31T10:00:09.422Z,932.80
2018-07-31T10:01:09.414Z,932.80
2018-07-31T10:02:09.342Z,932.72
2018-07-31T10:03:09.337Z,932.71
2018-07-31T10:04:09.465Z,932.77
2018-07-31T10:05:09.554Z,932.89
2018-07-31T10:06:09.631Z,932.96
2018-07-31T10:07:09.389Z,932.96
2018-07-31T10:08:09.376Z,932.92
2018-07-31T10:09:09.410Z,932.89
2018-07-31T10:10:09.527Z,932.81
2018-07-31T10:11:09.630Z,932.80
2018-07-31T10:12:09.435Z,932.70
2018-07-31T10:13:09.443Z,932.62
2018-07-31T10:14:09.571Z,932.58
2018-07-31T10:15:09.585Z,932.50
2018-07-31T10:16:09.582Z,932.40
2018-07-31T10:17:09.488Z,932.37
2018-07-31T10:18:09.588Z,932.27
2018-07-31T10:19:09.546Z,932.20
2018-07-31T10:20:09.550Z,932.08
2018-07-31T10:21:09.591Z,932.01
2018-07-31T10:22:09.662Z,931.93
2018-07-31T10:23:09.556Z,931.89
2018-07-31T10:24:09.706Z,931.77
2018-07-31T10:25:09.581Z,931.64
2018-07-31T10:26:09.589Z,931.51
2018-07-31T10:27:09.610Z,931.47
2018-07-31T10:28:09.608Z,931.38
2018-07-31T10:29:09.663Z,931.35
2018-07-31T10:30:09.673Z,931.35
2018-07-31T10:31:09.777Z,931.44
2018-07-31T10:32:09.656Z,931.48
2018-07-31T10:33:09.673Z,931.56
2018-07-31T10:34:09.797Z,931.58
2018-07-31T10:35:09.726Z,931.56
2018-07-31T10:36:09.792Z,931.58
2018-07-31T10:37:09.832Z,931.59
2018-07-31T10:38:09.839Z,931.65
2018-07-31T10:39:09.730Z,931.65
2018-07-31T10:40:09.783Z,931.60
2018-07-31T10:41:09.842Z,931.64
2018-07-31T10:42:09.763Z,931.63
2018-07-31T10:43:09.769Z,931.60
2018-07-31T10:44:09.775Z,931.54
2018-07-31T10:45:09.790Z,931.43
2018-07-31T10:46:10.039Z,931.27
2018-07-31T10:47:09.937Z,931.26
2018-07-31T10:48:09.957Z,931.25
2018-07-31T10:49:09.843Z,931.20
2018-07-31T10:50:09.840Z,930.95
2018-07-31T10:51:10.087Z,930.80
2018-07-31T10:52:09.912Z,930.89
2018-07-31T10:53:09.880Z,930.81
2018-07-31T10:54:09.915Z,930.90
2018-07-31T10:55:10.052Z,931.01
2018-07-31T10:56:10.237Z,931.05
2018-07-31T10:57:09.937Z,931.16
2018-07-31T10:58:09.966Z,931.25
2018-07-31T10:59:09.968Z,931.30
2018-07-31T11:00:09.981Z,931.34
2018-07-31T11:01:10.035Z,931.46
2018-07-31T11:02:10.189Z,931.39
2018-07-31T11:03:10.191Z,931.23
2018-07-31T11:04:10.133Z,931.10
2018-07-31T11:05:10.027Z,931.04
2018-07-31T11:06:10.031Z,931.15
2018-07-31T11:07:10.286Z,931.32
2018-07-31T11:08:10.096Z,931.39
2018-07-31T11:09:10.066Z,931.42
2018-07-31T11:10:10.121Z,931.58
2018-07-31T11:11:10.096Z,931.59
2018-07-31T11:12:10.334Z,931.52
2018-07-31T11:13:10.171Z,931.55
2018-07-31T11:14:10.121Z,931.58
2018-07-31T11:15:10.116Z,931.57
2018-07-31T11:16:10.149Z,931.47
2018-07-31T11:17:10.352Z,931.44
2018-07-31T11:18:10.292Z,931.43
2018-07-31T11:19:10.189Z,931.34
2018-07-31T11:20:10.188Z,931.29
2018-07-31T11:21:10.298Z,931.28
2018-07-31T11:22:10.408Z,931.31
2018-07-31T11:23:10.261Z,931.26
2018-07-31T11:24:10.236Z,931.19
2018-07-31T11:25:10.245Z,931.12
2018-07-31T11:26:10.299Z,931.07
2018-07-31T11:27:10.522Z,931.09
2018-07-31T11:28:10.283Z,931.10
2018-07-31T11:29:10.304Z,931.11
2018-07-31T11:30:10.311Z,931.17
2018-07-31T11:31:10.307Z,931.13
2018-07-31T11:32:10.419Z,931.14
2018-07-31T11:33:10.450Z,931.16
2018-07-31T11:34:10.476Z,931.24
2018-07-31T11:35:10.363Z,931.33
2018-07-31T11:36:10.498Z,931.39
2018-07-31T11:37:10.487Z,931.37
2018-07-31T11:38:10.399Z,931.33
2018-07-31T11:39:10.418Z,931.41
2018-07-31T11:40:10.418Z,931.44
2018-07-31T11:41:10.561Z,931.47
2018-07-31T11:42:10.555Z,931.49
2018-07-31T11:43:10.477Z,931.46
2018-07-31T11:44:10.465Z,931.51
2018-07-31T11:45:10.613Z,931.54
2018-07-31T11:46:10.554Z,931.54
2018-07-31T11:47:10.732Z,931.59
2018-07-31T11:48:10.539Z,931.62
2018-07-31T11:49:10.595Z,931.62
2018-07-31T11:50:10.693Z,931.62
2018-07-31T11:51:10.566Z,931.64
2018-07-31T11:52:10.809Z,931.69
2018-07-31T11:53:10.596Z,931.69
2018-07-31T11:54:10.608Z,931.65
2018-07-31T11:55:10.643Z,931.62
2018-07-31T11:56:10.652Z,931.59
2018-07-31T11:57:10.853Z,931.59
2018-07-31T11:58:10.792Z,931.57
2018-07-31T11:59:10.678Z,931.62
2018-07-31T12:00:10.702Z,931.60
2018-07-31T12:01:10.721Z,931.58
2018-07-31T12:02:10.736Z,931.57
2018-07-31T12:03:10.999Z,931.61
2018-07-31T12:04:10.889Z,931.67
2018-07-31T12:05:10.765Z,931.70
2018-07-31T12:06:10.769Z,931.75
2018-07-31T12:07:10.916Z,931.81
2018-07-31T12:08:11.127Z,931.85
2018-07-31T12:09:10.826Z,931.88
2018-07-31T12:10:10.861Z,931.90
2018-07-31T12:11:10.968Z,931.90
2018-07-31T12:12:10.843Z,931.86
2018-07-31T12:13:11.069Z,931.88
2018-07-31T12:14:10.894Z,931.90
2018-07-31T12:15:10.882Z,931.94
2018-07-31T12:16:10.912Z,931.97
2018-07-31T12:17:10.926Z,931.99
2018-07-31T12:18:11.158Z,931.98
2018-07-31T12:19:11.005Z,932.00
2018-07-31T12:20:10.978Z,932.02
2018-07-31T12:21:10.963Z,931.96
2018-07-31T12:22:11.000Z,931.97
2018-07-31T12:23:11.095Z,932.00
2018-07-31T12:24:11.019Z,932.05
2018-07-31T12:25:11.152Z,932.08
2018-07-31T12:26:11.170Z,932.14
2018-07-31T12:27:11.063Z,932.18
2018-07-31T12:28:11.282Z,932.22
2018-07-31T12:29:11.090Z,932.25